sensor_id;sensor_type;location;lat;lon;timestamp;P1;durP1;ratioP1;P2;durP2;ratioP2
49310;SDS011;35177;45.900;5.946;2024-01-10T00:01:00;17.75;;;10.88;;
49310;SDS011;35177;45.900;5.946;2024-01-10T00:03:26;19.23;;;10.93;;
49310;SDS011;35177;45.900;5.946;2024-01-10T00:05:51;18.85;;;11.07;;
49310;SDS011;35177;45.900;5.946;2024-01-10T00:08:16;19.75;;;11.60;;
49310;SDS011;35177;45.900;5.946;2024-01-10T00:10:42;17.80;;;10.88;;
49310;SDS011;35177;45.900;5.946;2024-01-10T00:13:07;17.20;;;10.88;;
49310;SDS011;35177;45.900;5.946;2024-01-10T00:15:32;18.58;;;11.45;;
49310;SDS011;35177;45.900;5.946;2024-01-10T00:17:58;15.93;;;10.60;;
49310;SDS011;35177;45.900;5.946;2024-01-10T00:20:23;21.15;;;11.85;;
49310;SDS011;35177;45.900;5.946;2024-01-10T00:22:48;15.70;;;10.30;;
49310;SDS011;35177;45.900;5.946;2024-01-10T00:25:14;17.63;;;10.90;;
49310;SDS011;35177;45.900;5.946;2024-01-10T00:27:39;20.38;;;11.75;;
49310;SDS011;35177;45.900;5.946;2024-01-10T00:30:05;20.42;;;12.10;;
49310;SDS011;35177;45.900;5.946;2024-01-10T00:32:30;19.20;;;11.13;;
49310;SDS011;35177;45.900;5.946;2024-01-10T00:34:56;18.35;;;11.25;;
49310;SDS011;35177;45.900;5.946;2024-01-10T00:37:21;19.55;;;11.38;;
49310;SDS011;35177;45.900;5.946;2024-01-10T00:39:46;18.38;;;10.88;;
49310;SDS011;35177;45.900;5.946;2024-01-10T00:42:12;20.73;;;12.63;;
49310;SDS011;35177;45.900;5.946;2024-01-10T00:44:37;22.40;;;12.27;;
49310;SDS011;35177;45.900;5.946;2024-01-10T00:47:02;20.10;;;12.77;;
49310;SDS011;35177;45.900;5.946;2024-01-10T00:49:27;21.88;;;12.88;;
49310;SDS011;35177;45.900;5.946;2024-01-10T00:51:53;21.30;;;12.55;;
49310;SDS011;35177;45.900;5.946;2024-01-10T00:54:19;23.20;;;14.00;;
49310;SDS011;35177;45.900;5.946;2024-01-10T00:56:44;22.95;;;14.13;;
49310;SDS011;35177;45.900;5.946;2024-01-10T00:59:09;25.45;;;13.88;;
49310;SDS011;35177;45.900;5.946;2024-01-10T01:01:35;24.65;;;14.07;;
49310;SDS011;35177;45.900;5.946;2024-01-10T01:04:00;25.50;;;14.52;;
49310;SDS011;35177;45.900;5.946;2024-01-10T01:06:25;23.85;;;13.93;;
49310;SDS011;35177;45.900;5.946;2024-01-10T01:08:51;26.98;;;14.40;;
49310;SDS011;35177;45.900;5.946;2024-01-10T01:11:16;26.02;;;14.77;;
49310;SDS011;35177;45.900;5.946;2024-01-10T01:13:41;25.73;;;14.82;;
49310;SDS011;35177;45.900;5.946;2024-01-10T01:16:06;27.85;;;15.75;;
49310;SDS011;35177;45.900;5.946;2024-01-10T01:18:32;26.20;;;15.35;;
49310;SDS011;35177;45.900;5.946;2024-01-10T01:20:57;26.25;;;14.27;;
49310;SDS011;35177;45.900;5.946;2024-01-10T01:23:23;27.95;;;14.95;;
49310;SDS011;35177;45.900;5.946;2024-01-10T01:25:48;29.30;;;15.98;;
49310;SDS011;35177;45.900;5.946;2024-01-10T01:28:14;29.52;;;15.57;;
49310;SDS011;35177;45.900;5.946;2024-01-10T01:30:39;25.45;;;14.50;;
49310;SDS011;35177;45.900;5.946;2024-01-10T01:33:04;28.20;;;14.73;;
49310;SDS011;35177;45.900;5.946;2024-01-10T01:35:30;26.60;;;14.70;;
49310;SDS011;35177;45.900;5.946;2024-01-10T01:37:55;26.70;;;15.57;;
49310;SDS011;35177;45.900;5.946;2024-01-10T01:40:20;24.23;;;14.55;;
49310;SDS011;35177;45.900;5.946;2024-01-10T01:42:46;28.40;;;16.00;;
49310;SDS011;35177;45.900;5.946;2024-01-10T01:45:11;30.27;;;16.10;;
49310;SDS011;35177;45.900;5.946;2024-01-10T01:47:38;29.05;;;15.38;;
49310;SDS011;35177;45.900;5.946;2024-01-10T01:50:03;25.27;;;15.15;;
49310;SDS011;35177;45.900;5.946;2024-01-10T01:52:29;28.65;;;16.20;;
49310;SDS011;35177;45.900;5.946;2024-01-10T01:54:55;26.75;;;14.63;;
49310;SDS011;35177;45.900;5.946;2024-01-10T01:57:20;32.30;;;17.05;;
49310;SDS011;35177;45.900;5.946;2024-01-10T01:59:45;33.67;;;16.17;;
49310;SDS011;35177;45.900;5.946;2024-01-10T02:02:10;26.70;;;15.55;;
49310;SDS011;35177;45.900;5.946;2024-01-10T02:04:36;30.17;;;16.60;;
49310;SDS011;35177;45.900;5.946;2024-01-10T02:07:01;32.08;;;16.83;;
49310;SDS011;35177;45.900;5.946;2024-01-10T02:09:27;37.42;;;16.88;;
49310;SDS011;35177;45.900;5.946;2024-01-10T02:11:52;40.38;;;18.10;;
49310;SDS011;35177;45.900;5.946;2024-01-10T02:14:17;44.53;;;20.33;;
49310;SDS011;35177;45.900;5.946;2024-01-10T02:16:43;33.33;;;17.67;;
49310;SDS011;35177;45.900;5.946;2024-01-10T02:19:21;26.27;;;14.93;;
49310;SDS011;35177;45.900;5.946;2024-01-10T02:21:46;23.27;;;13.35;;
49310;SDS011;35177;45.900;5.946;2024-01-10T02:24:11;23.30;;;13.70;;
49310;SDS011;35177;45.900;5.946;2024-01-10T02:26:37;27.92;;;15.07;;
49310;SDS011;35177;45.900;5.946;2024-01-10T02:29:02;27.85;;;15.25;;
49310;SDS011;35177;45.900;5.946;2024-01-10T02:31:27;26.70;;;14.75;;
49310;SDS011;35177;45.900;5.946;2024-01-10T02:33:52;29.73;;;15.82;;
49310;SDS011;35177;45.900;5.946;2024-01-10T02:36:18;26.58;;;15.05;;
49310;SDS011;35177;45.900;5.946;2024-01-10T02:38:43;30.05;;;16.48;;
49310;SDS011;35177;45.900;5.946;2024-01-10T02:41:08;28.33;;;15.80;;
49310;SDS011;35177;45.900;5.946;2024-01-10T02:43:34;28.45;;;15.60;;
49310;SDS011;35177;45.900;5.946;2024-01-10T02:45:59;28.38;;;15.48;;
49310;SDS011;35177;45.900;5.946;2024-01-10T02:48:24;27.58;;;15.65;;
49310;SDS011;35177;45.900;5.946;2024-01-10T02:50:50;29.33;;;15.10;;
49310;SDS011;35177;45.900;5.946;2024-01-10T02:53:15;26.13;;;14.70;;
49310;SDS011;35177;45.900;5.946;2024-01-10T02:55:40;27.45;;;15.70;;
49310;SDS011;35177;45.900;5.946;2024-01-10T02:58:06;26.38;;;14.73;;
49310;SDS011;35177;45.900;5.946;2024-01-10T03:00:32;24.00;;;13.10;;
49310;SDS011;35177;45.900;5.946;2024-01-10T03:02:57;26.60;;;14.27;;
49310;SDS011;35177;45.900;5.946;2024-01-10T03:05:22;23.13;;;13.05;;
49310;SDS011;35177;45.900;5.946;2024-01-10T03:07:47;26.10;;;15.07;;
49310;SDS011;35177;45.900;5.946;2024-01-10T03:10:13;24.50;;;13.90;;
49310;SDS011;35177;45.900;5.946;2024-01-10T03:12:38;26.48;;;14.27;;
49310;SDS011;35177;45.900;5.946;2024-01-10T03:15:06;26.65;;;14.40;;
49310;SDS011;35177;45.900;5.946;2024-01-10T03:17:32;27.30;;;14.52;;
49310;SDS011;35177;45.900;5.946;2024-01-10T03:19:59;27.13;;;15.15;;
49310;SDS011;35177;45.900;5.946;2024-01-10T03:22:24;29.45;;;15.25;;
49310;SDS011;35177;45.900;5.946;2024-01-10T03:24:49;28.45;;;15.85;;
49310;SDS011;35177;45.900;5.946;2024-01-10T03:27:14;27.63;;;15.40;;
49310;SDS011;35177;45.900;5.946;2024-01-10T03:29:40;27.60;;;15.65;;
49310;SDS011;35177;45.900;5.946;2024-01-10T03:32:05;27.33;;;15.40;;
49310;SDS011;35177;45.900;5.946;2024-01-10T03:34:31;30.23;;;16.98;;
49310;SDS011;35177;45.900;5.946;2024-01-10T03:36:56;24.02;;;14.07;;
49310;SDS011;35177;45.900;5.946;2024-01-10T03:39:22;24.40;;;14.43;;
49310;SDS011;35177;45.900;5.946;2024-01-10T03:41:47;26.17;;;14.95;;
49310;SDS011;35177;45.900;5.946;2024-01-10T03:44:13;25.55;;;14.13;;
49310;SDS011;35177;45.900;5.946;2024-01-10T03:46:38;24.50;;;14.75;;
49310;SDS011;35177;45.900;5.946;2024-01-10T03:49:03;22.42;;;13.77;;
49310;SDS011;35177;45.900;5.946;2024-01-10T03:51:29;25.42;;;14.77;;
49310;SDS011;35177;45.900;5.946;2024-01-10T03:53:54;25.48;;;15.15;;
49310;SDS011;35177;45.900;5.946;2024-01-10T03:56:20;24.67;;;13.95;;
49310;SDS011;35177;45.900;5.946;2024-01-10T03:58:45;24.02;;;14.05;;
49310;SDS011;35177;45.900;5.946;2024-01-10T04:01:13;25.73;;;14.50;;
49310;SDS011;35177;45.900;5.946;2024-01-10T04:03:39;23.70;;;13.95;;
49310;SDS011;35177;45.900;5.946;2024-01-10T04:06:07;28.10;;;15.35;;
49310;SDS011;35177;45.900;5.946;2024-01-10T04:08:32;24.23;;;13.60;;
49310;SDS011;35177;45.900;5.946;2024-01-10T04:10:57;23.80;;;13.82;;
49310;SDS011;35177;45.900;5.946;2024-01-10T04:13:23;25.15;;;14.30;;
49310;SDS011;35177;45.900;5.946;2024-01-10T04:15:48;26.15;;;14.95;;
49310;SDS011;35177;45.900;5.946;2024-01-10T04:18:14;26.50;;;14.68;;
49310;SDS011;35177;45.900;5.946;2024-01-10T04:20:39;23.33;;;13.27;;
49310;SDS011;35177;45.900;5.946;2024-01-10T04:23:04;24.73;;;14.32;;
49310;SDS011;35177;45.900;5.946;2024-01-10T04:25:30;25.55;;;13.82;;
49310;SDS011;35177;45.900;5.946;2024-01-10T04:27:55;23.38;;;13.90;;
49310;SDS011;35177;45.900;5.946;2024-01-10T04:30:22;25.65;;;13.93;;
49310;SDS011;35177;45.900;5.946;2024-01-10T04:32:47;22.25;;;13.30;;
49310;SDS011;35177;45.900;5.946;2024-01-10T04:35:12;22.98;;;13.68;;
49310;SDS011;35177;45.900;5.946;2024-01-10T04:37:38;25.35;;;14.45;;
49310;SDS011;35177;45.900;5.946;2024-01-10T04:40:03;25.73;;;14.65;;
49310;SDS011;35177;45.900;5.946;2024-01-10T04:42:29;25.88;;;14.32;;
49310;SDS011;35177;45.900;5.946;2024-01-10T04:44:55;24.70;;;14.38;;
49310;SDS011;35177;45.900;5.946;2024-01-10T04:47:20;24.65;;;13.88;;
49310;SDS011;35177;45.900;5.946;2024-01-10T04:49:45;23.30;;;13.98;;
49310;SDS011;35177;45.900;5.946;2024-01-10T04:52:10;30.92;;;16.40;;
49310;SDS011;35177;45.900;5.946;2024-01-10T04:54:36;27.50;;;15.05;;
49310;SDS011;35177;45.900;5.946;2024-01-10T04:57:01;32.40;;;16.15;;
49310;SDS011;35177;45.900;5.946;2024-01-10T04:59:26;29.77;;;15.88;;
49310;SDS011;35177;45.900;5.946;2024-01-10T05:01:51;30.35;;;16.63;;
49310;SDS011;35177;45.900;5.946;2024-01-10T05:04:17;29.65;;;15.75;;
49310;SDS011;35177;45.900;5.946;2024-01-10T05:06:42;30.38;;;16.80;;
49310;SDS011;35177;45.900;5.946;2024-01-10T05:09:07;27.05;;;15.15;;
49310;SDS011;35177;45.900;5.946;2024-01-10T05:11:34;27.00;;;15.13;;
49310;SDS011;35177;45.900;5.946;2024-01-10T05:14:00;22.67;;;13.23;;
49310;SDS011;35177;45.900;5.946;2024-01-10T05:16:26;27.95;;;14.43;;
49310;SDS011;35177;45.900;5.946;2024-01-10T05:18:51;24.67;;;13.25;;
49310;SDS011;35177;45.900;5.946;2024-01-10T05:21:16;22.95;;;13.18;;
49310;SDS011;35177;45.900;5.946;2024-01-10T05:23:42;26.13;;;13.57;;
49310;SDS011;35177;45.900;5.946;2024-01-10T05:26:07;21.20;;;11.95;;
49310;SDS011;35177;45.900;5.946;2024-01-10T05:28:32;18.42;;;11.52;;
49310;SDS011;35177;45.900;5.946;2024-01-10T05:30:58;20.58;;;12.07;;
49310;SDS011;35177;45.900;5.946;2024-01-10T05:33:23;22.90;;;12.73;;
49310;SDS011;35177;45.900;5.946;2024-01-10T05:35:49;27.27;;;14.50;;
49310;SDS011;35177;45.900;5.946;2024-01-10T05:38:14;27.70;;;15.18;;
49310;SDS011;35177;45.900;5.946;2024-01-10T05:40:40;31.60;;;16.08;;
49310;SDS011;35177;45.900;5.946;2024-01-10T05:43:05;31.17;;;16.40;;
49310;SDS011;35177;45.900;5.946;2024-01-10T05:45:32;35.38;;;17.63;;
49310;SDS011;35177;45.900;5.946;2024-01-10T05:47:57;32.72;;;17.25;;
49310;SDS011;35177;45.900;5.946;2024-01-10T05:50:23;33.40;;;16.90;;
49310;SDS011;35177;45.900;5.946;2024-01-10T05:52:48;33.22;;;18.10;;
49310;SDS011;35177;45.900;5.946;2024-01-10T05:55:13;32.85;;;17.45;;
49310;SDS011;35177;45.900;5.946;2024-01-10T05:57:39;33.47;;;17.33;;
49310;SDS011;35177;45.900;5.946;2024-01-10T06:00:05;32.97;;;17.90;;
49310;SDS011;35177;45.900;5.946;2024-01-10T06:02:35;36.83;;;18.77;;
49310;SDS011;35177;45.900;5.946;2024-01-10T06:05:03;35.67;;;17.88;;
49310;SDS011;35177;45.900;5.946;2024-01-10T06:07:30;31.02;;;17.02;;
49310;SDS011;35177;45.900;5.946;2024-01-10T06:09:55;31.85;;;17.13;;
49310;SDS011;35177;45.900;5.946;2024-01-10T06:12:20;33.42;;;17.98;;
49310;SDS011;35177;45.900;5.946;2024-01-10T06:14:46;37.33;;;20.13;;
49310;SDS011;35177;45.900;5.946;2024-01-10T06:17:11;35.38;;;18.67;;
49310;SDS011;35177;45.900;5.946;2024-01-10T06:19:36;34.88;;;19.02;;
49310;SDS011;35177;45.900;5.946;2024-01-10T06:22:02;36.60;;;19.35;;
49310;SDS011;35177;45.900;5.946;2024-01-10T06:24:27;37.67;;;19.33;;
49310;SDS011;35177;45.900;5.946;2024-01-10T06:26:52;41.05;;;20.48;;
49310;SDS011;35177;45.900;5.946;2024-01-10T06:29:18;36.05;;;19.05;;
49310;SDS011;35177;45.900;5.946;2024-01-10T06:31:43;40.78;;;19.52;;
49310;SDS011;35177;45.900;5.946;2024-01-10T06:34:09;38.55;;;19.92;;
49310;SDS011;35177;45.900;5.946;2024-01-10T06:36:34;41.30;;;20.95;;
49310;SDS011;35177;45.900;5.946;2024-01-10T06:38:59;41.70;;;21.30;;
49310;SDS011;35177;45.900;5.946;2024-01-10T06:41:25;40.22;;;21.10;;
49310;SDS011;35177;45.900;5.946;2024-01-10T06:43:53;40.10;;;20.17;;
49310;SDS011;35177;45.900;5.946;2024-01-10T06:46:19;45.65;;;22.08;;
49310;SDS011;35177;45.900;5.946;2024-01-10T06:48:44;40.60;;;20.08;;
49310;SDS011;35177;45.900;5.946;2024-01-10T06:51:10;39.83;;;20.90;;
49310;SDS011;35177;45.900;5.946;2024-01-10T06:53:36;39.42;;;19.05;;
49310;SDS011;35177;45.900;5.946;2024-01-10T06:56:01;33.55;;;18.58;;
49310;SDS011;35177;45.900;5.946;2024-01-10T06:58:27;37.90;;;20.05;;
49310;SDS011;35177;45.900;5.946;2024-01-10T07:00:52;38.38;;;18.90;;
49310;SDS011;35177;45.900;5.946;2024-01-10T07:03:17;39.58;;;19.85;;
49310;SDS011;35177;45.900;5.946;2024-01-10T07:05:43;39.72;;;19.77;;
49310;SDS011;35177;45.900;5.946;2024-01-10T07:08:09;37.97;;;19.48;;
49310;SDS011;35177;45.900;5.946;2024-01-10T07:10:34;42.50;;;20.92;;
49310;SDS011;35177;45.900;5.946;2024-01-10T07:13:00;51.67;;;23.45;;
49310;SDS011;35177;45.900;5.946;2024-01-10T07:15:29;49.80;;;23.52;;
49310;SDS011;35177;45.900;5.946;2024-01-10T07:17:54;42.28;;;20.23;;
49310;SDS011;35177;45.900;5.946;2024-01-10T07:20:19;42.53;;;21.67;;
49310;SDS011;35177;45.900;5.946;2024-01-10T07:22:44;41.65;;;20.65;;
49310;SDS011;35177;45.900;5.946;2024-01-10T07:25:10;43.72;;;19.70;;
49310;SDS011;35177;45.900;5.946;2024-01-10T07:27:39;41.70;;;20.10;;
49310;SDS011;35177;45.900;5.946;2024-01-10T07:30:05;40.10;;;20.85;;
49310;SDS011;35177;45.900;5.946;2024-01-10T07:32:44;39.50;;;20.20;;
49310;SDS011;35177;45.900;5.946;2024-01-10T07:35:11;41.88;;;20.08;;
49310;SDS011;35177;45.900;5.946;2024-01-10T07:37:37;37.72;;;19.38;;
49310;SDS011;35177;45.900;5.946;2024-01-10T07:40:02;38.45;;;19.85;;
49310;SDS011;35177;45.900;5.946;2024-01-10T07:42:30;36.55;;;19.90;;
49310;SDS011;35177;45.900;5.946;2024-01-10T07:44:56;40.90;;;19.98;;
49310;SDS011;35177;45.900;5.946;2024-01-10T07:47:22;38.70;;;18.13;;
49310;SDS011;35177;45.900;5.946;2024-01-10T07:49:47;34.35;;;18.10;;
49310;SDS011;35177;45.900;5.946;2024-01-10T07:52:13;38.28;;;18.33;;
49310;SDS011;35177;45.900;5.946;2024-01-10T07:54:38;36.92;;;18.65;;
49310;SDS011;35177;45.900;5.946;2024-01-10T07:57:03;34.75;;;17.90;;
49310;SDS011;35177;45.900;5.946;2024-01-10T07:59:28;38.58;;;19.90;;
49310;SDS011;35177;45.900;5.946;2024-01-10T08:01:54;38.67;;;19.90;;
49310;SDS011;35177;45.900;5.946;2024-01-10T08:04:24;35.50;;;18.30;;
49310;SDS011;35177;45.900;5.946;2024-01-10T08:06:49;37.72;;;20.38;;
49310;SDS011;35177;45.900;5.946;2024-01-10T08:09:14;39.53;;;19.17;;
49310;SDS011;35177;45.900;5.946;2024-01-10T08:11:40;36.83;;;19.50;;
49310;SDS011;35177;45.900;5.946;2024-01-10T08:14:05;37.53;;;19.85;;
49310;SDS011;35177;45.900;5.946;2024-01-10T08:16:30;40.17;;;21.17;;
49310;SDS011;35177;45.900;5.946;2024-01-10T08:18:57;37.95;;;20.02;;
49310;SDS011;35177;45.900;5.946;2024-01-10T08:21:23;38.08;;;19.40;;
49310;SDS011;35177;45.900;5.946;2024-01-10T08:23:50;43.78;;;21.33;;
49310;SDS011;35177;45.900;5.946;2024-01-10T08:26:15;51.92;;;24.50;;
49310;SDS011;35177;45.900;5.946;2024-01-10T08:28:40;57.33;;;27.20;;
49310;SDS011;35177;45.900;5.946;2024-01-10T08:31:06;64.85;;;29.02;;
49310;SDS011;35177;45.900;5.946;2024-01-10T08:33:32;45.67;;;22.55;;
49310;SDS011;35177;45.900;5.946;2024-01-10T08:35:57;50.58;;;25.17;;
49310;SDS011;35177;45.900;5.946;2024-01-10T08:38:23;40.53;;;21.08;;
49310;SDS011;35177;45.900;5.946;2024-01-10T08:40:48;46.33;;;23.38;;
49310;SDS011;35177;45.900;5.946;2024-01-10T08:43:14;42.88;;;22.38;;
49310;SDS011;35177;45.900;5.946;2024-01-10T08:45:39;44.78;;;23.67;;
49310;SDS011;35177;45.900;5.946;2024-01-10T08:48:04;38.88;;;20.17;;
49310;SDS011;35177;45.900;5.946;2024-01-10T08:50:31;36.80;;;20.17;;
49310;SDS011;35177;45.900;5.946;2024-01-10T08:52:56;36.35;;;19.27;;
49310;SDS011;35177;45.900;5.946;2024-01-10T08:55:22;35.30;;;19.10;;
49310;SDS011;35177;45.900;5.946;2024-01-10T08:57:47;34.33;;;18.52;;
49310;SDS011;35177;45.900;5.946;2024-01-10T09:00:14;35.33;;;19.45;;
49310;SDS011;35177;45.900;5.946;2024-01-10T09:02:40;33.85;;;18.58;;
49310;SDS011;35177;45.900;5.946;2024-01-10T09:05:05;39.33;;;20.33;;
49310;SDS011;35177;45.900;5.946;2024-01-10T09:07:33;37.15;;;18.85;;
49310;SDS011;35177;45.900;5.946;2024-01-10T09:09:58;38.35;;;21.27;;
49310;SDS011;35177;45.900;5.946;2024-01-10T09:12:23;39.38;;;19.02;;
49310;SDS011;35177;45.900;5.946;2024-01-10T09:14:49;39.15;;;22.67;;
49310;SDS011;35177;45.900;5.946;2024-01-10T09:17:14;35.92;;;20.70;;
49310;SDS011;35177;45.900;5.946;2024-01-10T09:19:40;36.13;;;20.05;;
49310;SDS011;35177;45.900;5.946;2024-01-10T09:22:05;34.00;;;18.80;;
49310;SDS011;35177;45.900;5.946;2024-01-10T09:24:31;36.90;;;21.08;;
49310;SDS011;35177;45.900;5.946;2024-01-10T09:26:56;40.20;;;22.08;;
49310;SDS011;35177;45.900;5.946;2024-01-10T09:29:23;33.63;;;20.33;;
49310;SDS011;35177;45.900;5.946;2024-01-10T09:31:48;38.03;;;22.02;;
49310;SDS011;35177;45.900;5.946;2024-01-10T09:34:13;34.40;;;19.73;;
49310;SDS011;35177;45.900;5.946;2024-01-10T09:36:39;38.85;;;20.48;;
49310;SDS011;35177;45.900;5.946;2024-01-10T09:39:04;32.00;;;18.50;;
49310;SDS011;35177;45.900;5.946;2024-01-10T09:41:31;33.75;;;17.77;;
49310;SDS011;35177;45.900;5.946;2024-01-10T09:44:00;31.17;;;17.77;;
49310;SDS011;35177;45.900;5.946;2024-01-10T09:46:25;33.63;;;17.65;;
49310;SDS011;35177;45.900;5.946;2024-01-10T09:48:54;30.02;;;18.08;;
49310;SDS011;35177;45.900;5.946;2024-01-10T09:51:20;32.13;;;18.15;;
49310;SDS011;35177;45.900;5.946;2024-01-10T09:53:45;31.50;;;18.25;;
49310;SDS011;35177;45.900;5.946;2024-01-10T09:56:14;31.70;;;16.58;;
49310;SDS011;35177;45.900;5.946;2024-01-10T09:58:41;30.20;;;17.60;;
49310;SDS011;35177;45.900;5.946;2024-01-10T10:01:07;31.17;;;18.75;;
49310;SDS011;35177;45.900;5.946;2024-01-10T10:03:34;32.00;;;17.73;;
49310;SDS011;35177;45.900;5.946;2024-01-10T10:06:01;34.65;;;19.02;;
49310;SDS011;35177;45.900;5.946;2024-01-10T10:08:26;30.88;;;17.38;;
49310;SDS011;35177;45.900;5.946;2024-01-10T10:10:52;31.50;;;17.77;;
49310;SDS011;35177;45.900;5.946;2024-01-10T10:13:28;32.75;;;19.58;;
49310;SDS011;35177;45.900;5.946;2024-01-10T10:16:03;30.35;;;17.55;;
49310;SDS011;35177;45.900;5.946;2024-01-10T10:18:29;30.00;;;16.65;;
49310;SDS011;35177;45.900;5.946;2024-01-10T10:21:13;30.38;;;17.90;;
49310;SDS011;35177;45.900;5.946;2024-01-10T10:23:40;29.52;;;17.58;;
49310;SDS011;35177;45.900;5.946;2024-01-10T10:26:15;27.95;;;16.13;;
49310;SDS011;35177;45.900;5.946;2024-01-10T10:28:47;26.65;;;16.25;;
49310;SDS011;35177;45.900;5.946;2024-01-10T10:31:13;28.70;;;17.42;;
49310;SDS011;35177;45.900;5.946;2024-01-10T10:33:38;31.13;;;17.90;;
49310;SDS011;35177;45.900;5.946;2024-01-10T10:36:04;31.20;;;18.75;;
49310;SDS011;35177;45.900;5.946;2024-01-10T10:38:29;29.23;;;16.80;;
49310;SDS011;35177;45.900;5.946;2024-01-10T10:40:55;31.45;;;17.65;;
49310;SDS011;35177;45.900;5.946;2024-01-10T10:43:21;33.63;;;19.00;;
49310;SDS011;35177;45.900;5.946;2024-01-10T10:45:49;32.25;;;19.52;;
49310;SDS011;35177;45.900;5.946;2024-01-10T10:48:18;34.58;;;19.90;;
49310;SDS011;35177;45.900;5.946;2024-01-10T10:50:49;33.47;;;19.27;;
49310;SDS011;35177;45.900;5.946;2024-01-10T10:53:15;31.63;;;18.25;;
49310;SDS011;35177;45.900;5.946;2024-01-10T10:55:43;36.97;;;19.40;;
49310;SDS011;35177;45.900;5.946;2024-01-10T10:58:09;60.53;;;28.98;;
49310;SDS011;35177;45.900;5.946;2024-01-10T11:00:34;32.45;;;18.90;;
49310;SDS011;35177;45.900;5.946;2024-01-10T11:03:00;31.90;;;18.73;;
49310;SDS011;35177;45.900;5.946;2024-01-10T11:05:27;34.20;;;18.92;;
49310;SDS011;35177;45.900;5.946;2024-01-10T11:07:53;30.23;;;18.13;;
49310;SDS011;35177;45.900;5.946;2024-01-10T11:23:28;40.13;;;21.50;;
49310;SDS011;35177;45.900;5.946;2024-01-10T11:25:58;41.25;;;21.70;;
49310;SDS011;35177;45.900;5.946;2024-01-10T11:28:26;45.95;;;23.90;;
49310;SDS011;35177;45.900;5.946;2024-01-10T11:30:52;41.65;;;21.15;;
49310;SDS011;35177;45.900;5.946;2024-01-10T11:36:05;50.63;;;24.77;;
49310;SDS011;35177;45.900;5.946;2024-01-10T11:38:29;46.35;;;23.05;;
49310;SDS011;35177;45.900;5.946;2024-01-10T11:40:54;40.38;;;20.92;;
49310;SDS011;35177;45.900;5.946;2024-01-10T11:43:21;37.60;;;21.35;;
49310;SDS011;35177;45.900;5.946;2024-01-10T11:45:50;39.33;;;20.52;;
49310;SDS011;35177;45.900;5.946;2024-01-10T11:48:16;39.60;;;22.65;;
49310;SDS011;35177;45.900;5.946;2024-01-10T11:50:42;39.28;;;22.15;;
49310;SDS011;35177;45.900;5.946;2024-01-10T11:53:07;38.22;;;20.88;;
49310;SDS011;35177;45.900;5.946;2024-01-10T11:55:50;37.80;;;21.17;;
49310;SDS011;35177;45.900;5.946;2024-01-10T11:58:16;38.95;;;20.30;;
49310;SDS011;35177;45.900;5.946;2024-01-10T12:00:42;37.72;;;20.88;;
49310;SDS011;35177;45.900;5.946;2024-01-10T12:03:07;36.92;;;20.30;;
49310;SDS011;35177;45.900;5.946;2024-01-10T12:05:33;36.53;;;19.90;;
49310;SDS011;35177;45.900;5.946;2024-01-10T12:07:59;36.30;;;20.55;;
49310;SDS011;35177;45.900;5.946;2024-01-10T12:10:25;36.92;;;20.30;;
49310;SDS011;35177;45.900;5.946;2024-01-10T12:12:51;35.58;;;20.48;;
49310;SDS011;35177;45.900;5.946;2024-01-10T12:15:16;34.03;;;19.23;;
49310;SDS011;35177;45.900;5.946;2024-01-10T12:17:41;38.78;;;20.40;;
49310;SDS011;35177;45.900;5.946;2024-01-10T12:20:07;42.05;;;22.77;;
49310;SDS011;35177;45.900;5.946;2024-01-10T12:22:32;40.00;;;21.05;;
49310;SDS011;35177;45.900;5.946;2024-01-10T12:25:04;36.80;;;20.05;;
49310;SDS011;35177;45.900;5.946;2024-01-10T12:27:29;40.88;;;22.25;;
49310;SDS011;35177;45.900;5.946;2024-01-10T12:29:55;42.38;;;22.45;;
49310;SDS011;35177;45.900;5.946;2024-01-10T12:32:21;44.35;;;21.77;;
49310;SDS011;35177;45.900;5.946;2024-01-10T12:34:47;43.95;;;21.40;;
49310;SDS011;35177;45.900;5.946;2024-01-10T12:37:13;40.92;;;22.48;;
49310;SDS011;35177;45.900;5.946;2024-01-10T12:39:38;41.35;;;21.73;;
49310;SDS011;35177;45.900;5.946;2024-01-10T12:42:03;44.13;;;22.52;;
49310;SDS011;35177;45.900;5.946;2024-01-10T12:44:31;45.45;;;23.52;;
49310;SDS011;35177;45.900;5.946;2024-01-10T12:46:57;43.63;;;22.70;;
49310;SDS011;35177;45.900;5.946;2024-01-10T12:49:23;45.10;;;23.77;;
49310;SDS011;35177;45.900;5.946;2024-01-10T12:51:48;45.47;;;24.23;;
49310;SDS011;35177;45.900;5.946;2024-01-10T12:54:14;41.90;;;22.25;;
49310;SDS011;35177;45.900;5.946;2024-01-10T12:56:39;40.60;;;20.95;;
49310;SDS011;35177;45.900;5.946;2024-01-10T12:59:04;41.05;;;21.38;;
49310;SDS011;35177;45.900;5.946;2024-01-10T13:01:30;37.33;;;20.23;;
49310;SDS011;35177;45.900;5.946;2024-01-10T13:03:55;39.55;;;20.50;;
49310;SDS011;35177;45.900;5.946;2024-01-10T13:06:21;42.03;;;22.35;;
49310;SDS011;35177;45.900;5.946;2024-01-10T13:08:47;44.60;;;22.05;;
49310;SDS011;35177;45.900;5.946;2024-01-10T13:11:13;46.65;;;25.10;;
49310;SDS011;35177;45.900;5.946;2024-01-10T13:13:39;42.67;;;22.45;;
49310;SDS011;35177;45.900;5.946;2024-01-10T13:16:05;45.40;;;23.05;;
49310;SDS011;35177;45.900;5.946;2024-01-10T13:18:30;47.72;;;23.73;;
49310;SDS011;35177;45.900;5.946;2024-01-10T13:20:56;47.35;;;22.92;;
49310;SDS011;35177;45.900;5.946;2024-01-10T13:23:21;51.33;;;24.25;;
49310;SDS011;35177;45.900;5.946;2024-01-10T13:25:52;45.42;;;23.52;;
49310;SDS011;35177;45.900;5.946;2024-01-10T13:28:20;50.65;;;26.27;;
49310;SDS011;35177;45.900;5.946;2024-01-10T13:30:45;47.25;;;22.98;;
49310;SDS011;35177;45.900;5.946;2024-01-10T13:33:11;48.63;;;24.90;;
49310;SDS011;35177;45.900;5.946;2024-01-10T13:35:36;48.72;;;25.10;;
49310;SDS011;35177;45.900;5.946;2024-01-10T13:38:02;47.85;;;24.73;;
49310;SDS011;35177;45.900;5.946;2024-01-10T13:40:27;47.03;;;23.92;;
49310;SDS011;35177;45.900;5.946;2024-01-10T13:42:53;48.83;;;25.52;;
49310;SDS011;35177;45.900;5.946;2024-01-10T13:45:18;53.80;;;26.00;;
49310;SDS011;35177;45.900;5.946;2024-01-10T13:47:43;49.90;;;24.27;;
49310;SDS011;35177;45.900;5.946;2024-01-10T13:50:09;48.92;;;24.45;;
49310;SDS011;35177;45.900;5.946;2024-01-10T13:52:35;45.10;;;23.30;;
49310;SDS011;35177;45.900;5.946;2024-01-10T13:55:00;46.45;;;24.13;;
49310;SDS011;35177;45.900;5.946;2024-01-10T13:57:26;46.35;;;23.73;;
49310;SDS011;35177;45.900;5.946;2024-01-10T13:59:51;46.50;;;25.13;;
49310;SDS011;35177;45.900;5.946;2024-01-10T14:02:20;50.38;;;24.77;;
49310;SDS011;35177;45.900;5.946;2024-01-10T14:04:45;48.08;;;24.55;;
49310;SDS011;35177;45.900;5.946;2024-01-10T14:07:11;45.47;;;24.30;;
49310;SDS011;35177;45.900;5.946;2024-01-10T14:09:36;48.08;;;24.05;;
49310;SDS011;35177;45.900;5.946;2024-01-10T14:12:01;49.75;;;24.52;;
49310;SDS011;35177;45.900;5.946;2024-01-10T14:14:27;47.13;;;23.70;;
49310;SDS011;35177;45.900;5.946;2024-01-10T14:16:52;48.75;;;25.27;;
49310;SDS011;35177;45.900;5.946;2024-01-10T14:19:17;45.72;;;24.42;;
49310;SDS011;35177;45.900;5.946;2024-01-10T14:21:43;52.40;;;26.48;;
49310;SDS011;35177;45.900;5.946;2024-01-10T14:24:08;51.95;;;24.85;;
49310;SDS011;35177;45.900;5.946;2024-01-10T14:26:33;49.50;;;25.33;;
49310;SDS011;35177;45.900;5.946;2024-01-10T14:29:00;59.25;;;26.75;;